Next Chapter — WDJ5751 — position and weather

sailwx.info

Track history (hours):
 
Tides and Currents Weather Stations Pressure Air Temp Water Temp Dewpoint Dewpoint Depression Visibility Wind Speed Wind Dir Waves Ship Positions

Next Chapter

Owner: Quogue, LLC, San Diego, CA. More information available from US FCC via Universal Licensing System and Coast Guard Vessel Documentation Center.

Last reported at 2018-May-10 19:23 UTC. Time now 2018-May-23 15:12 UTC.
Position N 48°15' W 124°02'.
Warning: this ship's position is 12 days out of date.

Length 40 m; draft 1.9 m.

Type: Pleasure craft. MMSI: 367790930.

Date/timePositionNaut miles runAvg speedWind from/ knotsBaromVisibWave heightAir tempDewpointWater temp
2018-May-10 19:23N 48°15' W 124°02'923.0
2018-May-10 19:00N 48°19' W 124°14'1019.6
2018-May-10 18:30N 48°23' W 124°27'918.5
2018-May-10 18:01N 48°27' W 124°40'917.6
2018-May-10 17:30N 48°28' W 124°53'9015.1
2018-May-10 11:33N 46°58' W 124°54'113.7
2018-May-10 11:30N 46°58' W 124°54'713.4
2018-May-10 11:00N 46°51' W 124°54'713.1
2018-May-10 10:30N 46°44' W 124°53'612.9
2018-May-10 10:00N 46°38' W 124°52'713.1
2018-May-10 09:30N 46°32' W 124°49'713.2
2018-May-10 09:01N 46°25' W 124°49'713.4
2018-May-10 08:30N 46°18' W 124°49'713.3
2018-May-10 08:01N 46°12' W 124°50'1013.4
2018-May-10 07:15N 46°02' W 124°50'313.3
2018-May-10 07:01N 45°58' W 124°49'713.2
2018-May-10 06:30N 45°52' W 124°49'713.1
2018-May-10 06:00N 45°45' W 124°49'713.1
2018-May-10 05:31N 45°39' W 124°49'713.3
2018-May-10 05:00N 45°32' W 124°49'42512.0
2018-May-08 17:31N 38°29' W 123°44'112.7
2018-May-08 17:28N 38°29' W 123°44'612.6
2018-May-08 17:00N 38°23' W 123°42'612.1
2018-May-08 16:30N 38°17' W 123°39'611.5
2018-May-08 16:00N 38°12' W 123°36'511.1
2018-May-08 15:30N 38°08' W 123°32'611.0
2018-May-08 15:00N 38°03' W 123°28'510.9
2018-May-08 14:30N 37°58' W 123°25'510.7
2018-May-08 14:00N 37°54' W 123°22'811.2
2018-May-08 13:17N 37°46' W 123°18'311.0
2018-May-08 13:00N 37°43' W 123°17'16110.7
2018-May-07 21:52N 35°23' W 121°38'410.1
2018-May-07 21:29N 35°19' W 121°37'5 9.7
2018-May-07 21:00N 35°15' W 121°34'8 9.8
2018-May-07 20:11N 35°09' W 121°27'410.1
2018-May-07 19:46N 35°06' W 121°24'410.0
2018-May-07 19:22N 35°03' W 121°21'410.3
2018-May-07 19:00N 34°60' W 121°18'510.7
2018-May-07 18:30N 34°56' W 121°14'611.0
2018-May-07 18:00N 34°51' W 121°10'811.0
2018-May-07 17:15N 34°45' W 121°04'311.1
2018-May-07 17:00N 34°42' W 121°02'510.7
2018-May-07 16:30N 34°38' W 120°58'510.7
2018-May-07 16:00N 34°34' W 120°54'510.5
2018-May-07 15:30N 34°30' W 120°51'510.6
2018-May-07 15:00N 34°25' W 120°47'510.5
2018-May-07 14:30N 34°22' W 120°42'510.2
2018-May-07 14:00N 34°20' W 120°36'510.6
2018-May-07 13:30N 34°17' W 120°31'510.9
2018-May-07 13:00N 34°15' W 120°25'611.3
2018-May-07 12:28N 34°12' W 120°18'511.2
2018-May-07 12:00N 34°10' W 120°13'611.1
2018-May-07 11:29N 34°07' W 120°06'511.2
2018-May-07 11:00N 34°04' W 120°01'611.9
2018-May-07 10:29N 33°60' W 119°56'811.6
2018-May-07 09:45N 33°53' W 119°49'311.4
2018-May-07 09:28N 33°52' W 119°46'511.4
2018-May-07 09:00N 33°49' W 119°40'611.4
2018-May-07 08:30N 33°47' W 119°34'611.5
2018-May-07 08:00N 33°44' W 119°28'611.6
2018-May-07 07:30N 33°42' W 119°22'611.5
2018-May-07 07:00N 33°39' W 119°16'911.8
2018-May-07 06:12N 33°35' W 119°05'211.6
2018-May-07 06:00N 33°34' W 119°03'611.7
2018-May-07 05:30N 33°31' W 118°57'611.7
2018-May-07 05:00N 33°28' W 118°51'611.8
2018-May-07 04:30N 33°25' W 118°45'611.5
2018-May-07 03:59N 33°21' W 118°39'611.4
2018-May-07 03:30N 33°18' W 118°33'611.5
2018-May-07 02:59N 33°16' W 118°27'611.6
2018-May-07 02:30N 33°13' W 118°21'811.3
2018-May-07 01:49N 33°09' W 118°14'411.4
2018-May-07 01:28N 33°06' W 118°10'511.2
2018-May-07 01:00N 33°04' W 118°04'510.9
2018-May-07 00:30N 33°01' W 117°59'510.7
2018-May-07 00:00N 32°58' W 117°54'610.8
2018-May-06 23:30N 32°55' W 117°48'510.9
2018-May-06 23:00N 32°52' W 117°42'610.9
2018-May-06 22:29N 32°49' W 117°37'510.8
2018-May-06 22:00N 32°46' W 117°31'611.0
2018-May-06 21:30N 32°44' W 117°26'  
Track history (hours):
 
Tides and Currents Weather Stations Pressure Air Temp Water Temp Dewpoint Dewpoint Depression Visibility Wind Speed Wind Dir Waves Ship Positions

Next Chapter

Owner: Quogue, LLC, San Diego, CA. More information available from US FCC via Universal Licensing System and Coast Guard Vessel Documentation Center.

Last reported at 2018-May-10 19:23 UTC. Time now 2018-May-23 15:12 UTC.
Position N 48°15' W 124°02'.
Warning: this ship's position is 12 days out of date.

Length 40 m; draft 1.9 m.

Type: Pleasure craft. MMSI: 367790930.

Date/timePositionNaut miles runAvg speedWind from/ knotsBaromVisibWave heightAir tempDewpointWater temp
2018-May-10 19:23N 48°15' W 124°02'923.0
2018-May-10 19:00N 48°19' W 124°14'1019.6
2018-May-10 18:30N 48°23' W 124°27'918.5
2018-May-10 18:01N 48°27' W 124°40'917.6
2018-May-10 17:30N 48°28' W 124°53'9015.1
2018-May-10 11:33N 46°58' W 124°54'113.7
2018-May-10 11:30N 46°58' W 124°54'713.4
2018-May-10 11:00N 46°51' W 124°54'713.1
2018-May-10 10:30N 46°44' W 124°53'612.9
2018-May-10 10:00N 46°38' W 124°52'713.1
2018-May-10 09:30N 46°32' W 124°49'713.2
2018-May-10 09:01N 46°25' W 124°49'713.4
2018-May-10 08:30N 46°18' W 124°49'713.3
2018-May-10 08:01N 46°12' W 124°50'1013.4
2018-May-10 07:15N 46°02' W 124°50'313.3
2018-May-10 07:01N 45°58' W 124°49'713.2
2018-May-10 06:30N 45°52' W 124°49'713.1
2018-May-10 06:00N 45°45' W 124°49'713.1
2018-May-10 05:31N 45°39' W 124°49'713.3
2018-May-10 05:00N 45°32' W 124°49'42512.0
2018-May-08 17:31N 38°29' W 123°44'112.7
2018-May-08 17:28N 38°29' W 123°44'612.6
2018-May-08 17:00N 38°23' W 123°42'612.1
2018-May-08 16:30N 38°17' W 123°39'611.5
2018-May-08 16:00N 38°12' W 123°36'511.1
2018-May-08 15:30N 38°08' W 123°32'611.0
2018-May-08 15:00N 38°03' W 123°28'510.9
2018-May-08 14:30N 37°58' W 123°25'510.7
2018-May-08 14:00N 37°54' W 123°22'811.2
2018-May-08 13:17N 37°46' W 123°18'311.0
2018-May-08 13:00N 37°43' W 123°17'16110.7
2018-May-07 21:52N 35°23' W 121°38'410.1
2018-May-07 21:29N 35°19' W 121°37'5 9.7
2018-May-07 21:00N 35°15' W 121°34'8 9.8
2018-May-07 20:11N 35°09' W 121°27'410.1
2018-May-07 19:46N 35°06' W 121°24'410.0
2018-May-07 19:22N 35°03' W 121°21'410.3
2018-May-07 19:00N 34°60' W 121°18'510.7
2018-May-07 18:30N 34°56' W 121°14'611.0
2018-May-07 18:00N 34°51' W 121°10'811.0
2018-May-07 17:15N 34°45' W 121°04'311.1
2018-May-07 17:00N 34°42' W 121°02'510.7
2018-May-07 16:30N 34°38' W 120°58'510.7
2018-May-07 16:00N 34°34' W 120°54'510.5
2018-May-07 15:30N 34°30' W 120°51'510.6
2018-May-07 15:00N 34°25' W 120°47'510.5
2018-May-07 14:30N 34°22' W 120°42'510.2
2018-May-07 14:00N 34°20' W 120°36'510.6
2018-May-07 13:30N 34°17' W 120°31'510.9
2018-May-07 13:00N 34°15' W 120°25'611.3
2018-May-07 12:28N 34°12' W 120°18'511.2
2018-May-07 12:00N 34°10' W 120°13'611.1
2018-May-07 11:29N 34°07' W 120°06'511.2
2018-May-07 11:00N 34°04' W 120°01'611.9
2018-May-07 10:29N 33°60' W 119°56'811.6
2018-May-07 09:45N 33°53' W 119°49'311.4
2018-May-07 09:28N 33°52' W 119°46'511.4
2018-May-07 09:00N 33°49' W 119°40'611.4
2018-May-07 08:30N 33°47' W 119°34'611.5
2018-May-07 08:00N 33°44' W 119°28'611.6
2018-May-07 07:30N 33°42' W 119°22'611.5
2018-May-07 07:00N 33°39' W 119°16'911.8
2018-May-07 06:12N 33°35' W 119°05'211.6
2018-May-07 06:00N 33°34' W 119°03'611.7
2018-May-07 05:30N 33°31' W 118°57'611.7
2018-May-07 05:00N 33°28' W 118°51'611.8
2018-May-07 04:30N 33°25' W 118°45'611.5
2018-May-07 03:59N 33°21' W 118°39'611.4
2018-May-07 03:30N 33°18' W 118°33'611.5
2018-May-07 02:59N 33°16' W 118°27'611.6
2018-May-07 02:30N 33°13' W 118°21'811.3
2018-May-07 01:49N 33°09' W 118°14'411.4
2018-May-07 01:28N 33°06' W 118°10'511.2
2018-May-07 01:00N 33°04' W 118°04'510.9
2018-May-07 00:30N 33°01' W 117°59'510.7
2018-May-07 00:00N 32°58' W 117°54'610.8
2018-May-06 23:30N 32°55' W 117°48'510.9
2018-May-06 23:00N 32°52' W 117°42'610.9
2018-May-06 22:29N 32°49' W 117°37'510.8
2018-May-06 22:00N 32°46' W 117°31'611.0
2018-May-06 21:30N 32°44' W 117°26'  

Dump ship's entire track history